sensor_id;sensor_type;location;lat;lon;timestamp;temperature;humidity
33815;DHT22;20121;51.910;8.406;2023-03-23T00:02:27;12.00;99.90
33815;DHT22;20121;51.910;8.406;2023-03-23T00:04:53;12.00;99.90
33815;DHT22;20121;51.910;8.406;2023-03-23T00:07:20;12.00;99.90
33815;DHT22;20121;51.910;8.406;2023-03-23T00:09:54;12.00;99.90
33815;DHT22;20121;51.910;8.406;2023-03-23T00:12:27;12.00;99.90
33815;DHT22;20121;51.910;8.406;2023-03-23T00:15:03;12.00;99.90
33815;DHT22;20121;51.910;8.406;2023-03-23T00:17:30;12.00;99.90
33815;DHT22;20121;51.910;8.406;2023-03-23T00:19:58;12.00;99.90
33815;DHT22;20121;51.910;8.406;2023-03-23T00:22:27;12.00;99.90
33815;DHT22;20121;51.910;8.406;2023-03-23T00:24:53;12.00;99.90
33815;DHT22;20121;51.910;8.406;2023-03-23T00:27:19;11.90;99.90
33815;DHT22;20121;51.910;8.406;2023-03-23T00:29:50;11.90;99.90
33815;DHT22;20121;51.910;8.406;2023-03-23T00:32:23;11.90;99.90
33815;DHT22;20121;51.910;8.406;2023-03-23T00:34:53;11.90;99.90
33815;DHT22;20121;51.910;8.406;2023-03-23T00:37:19;11.80;99.90
33815;DHT22;20121;51.910;8.406;2023-03-23T00:39:45;11.80;99.90
33815;DHT22;20121;51.910;8.406;2023-03-23T00:42:13;11.80;99.90
33815;DHT22;20121;51.910;8.406;2023-03-23T00:44:39;11.80;99.90
33815;DHT22;20121;51.910;8.406;2023-03-23T00:47:05;11.80;99.90
33815;DHT22;20121;51.910;8.406;2023-03-23T00:49:34;11.80;99.90
33815;DHT22;20121;51.910;8.406;2023-03-23T00:52:00;11.80;99.90
33815;DHT22;20121;51.910;8.406;2023-03-23T00:54:27;11.70;99.90
33815;DHT22;20121;51.910;8.406;2023-03-23T00:56:53;11.70;99.90
33815;DHT22;20121;51.910;8.406;2023-03-23T00:59:20;11.70;99.90
33815;DHT22;20121;51.910;8.406;2023-03-23T01:01:46;10.90;99.90
33815;DHT22;20121;51.910;8.406;2023-03-23T01:04:12;11.70;99.90
33815;DHT22;20121;51.910;8.406;2023-03-23T01:06:39;11.70;99.90
33815;DHT22;20121;51.910;8.406;2023-03-23T01:09:07;11.90;99.90
33815;DHT22;20121;51.910;8.406;2023-03-23T01:11:34;11.80;99.90
33815;DHT22;20121;51.910;8.406;2023-03-23T01:14:00;11.70;99.90
33815;DHT22;20121;51.910;8.406;2023-03-23T01:16:27;11.60;99.90
33815;DHT22;20121;51.910;8.406;2023-03-23T01:18:52;11.70;99.90
33815;DHT22;20121;51.910;8.406;2023-03-23T01:21:19;11.70;99.90
33815;DHT22;20121;51.910;8.406;2023-03-23T01:23:45;11.70;99.90
33815;DHT22;20121;51.910;8.406;2023-03-23T01:26:12;11.70;99.90
33815;DHT22;20121;51.910;8.406;2023-03-23T01:28:38;11.70;99.90
33815;DHT22;20121;51.910;8.406;2023-03-23T01:31:15;11.70;99.90
33815;DHT22;20121;51.910;8.406;2023-03-23T01:33:42;11.70;99.90
33815;DHT22;20121;51.910;8.406;2023-03-23T01:36:11;11.70;99.90
33815;DHT22;20121;51.910;8.406;2023-03-23T01:38:37;11.70;99.90
33815;DHT22;20121;51.910;8.406;2023-03-23T01:41:03;11.70;99.90
33815;DHT22;20121;51.910;8.406;2023-03-23T01:43:29;11.70;99.90
33815;DHT22;20121;51.910;8.406;2023-03-23T01:45:55;11.70;99.90
33815;DHT22;20121;51.910;8.406;2023-03-23T01:48:35;11.70;99.90
33815;DHT22;20121;51.910;8.406;2023-03-23T01:51:12;11.80;99.90
33815;DHT22;20121;51.910;8.406;2023-03-23T01:53:40;11.80;99.90
33815;DHT22;20121;51.910;8.406;2023-03-23T01:56:09;11.80;99.90
33815;DHT22;20121;51.910;8.406;2023-03-23T01:58:37;11.80;99.90
33815;DHT22;20121;51.910;8.406;2023-03-23T02:01:06;11.80;99.90
33815;DHT22;20121;51.910;8.406;2023-03-23T02:03:35;11.70;99.90
33815;DHT22;20121;51.910;8.406;2023-03-23T02:06:02;11.80;99.90
33815;DHT22;20121;51.910;8.406;2023-03-23T02:08:29;11.70;99.90
33815;DHT22;20121;51.910;8.406;2023-03-23T02:10:55;11.70;99.90
33815;DHT22;20121;51.910;8.406;2023-03-23T02:13:21;11.70;99.90
33815;DHT22;20121;51.910;8.406;2023-03-23T02:24:58;11.70;99.90
33815;DHT22;20121;51.910;8.406;2023-03-23T02:33:05;11.80;99.90
33815;DHT22;20121;51.910;8.406;2023-03-23T02:35:38;11.60;99.90
33815;DHT22;20121;51.910;8.406;2023-03-23T02:38:09;11.60;99.90
33815;DHT22;20121;51.910;8.406;2023-03-23T02:40:46;11.60;99.90
33815;DHT22;20121;51.910;8.406;2023-03-23T02:43:21;11.50;99.90
33815;DHT22;20121;51.910;8.406;2023-03-23T02:45:48;11.50;99.90
33815;DHT22;20121;51.910;8.406;2023-03-23T02:48:17;11.50;99.90
33815;DHT22;20121;51.910;8.406;2023-03-23T02:50:47;11.50;99.90
33815;DHT22;20121;51.910;8.406;2023-03-23T02:53:19;11.40;99.90
33815;DHT22;20121;51.910;8.406;2023-03-23T02:55:47;11.40;99.90
33815;DHT22;20121;51.910;8.406;2023-03-23T02:58:14;11.50;99.90
33815;DHT22;20121;51.910;8.406;2023-03-23T03:00:40;11.40;99.90
33815;DHT22;20121;51.910;8.406;2023-03-23T03:03:10;11.30;99.90
33815;DHT22;20121;51.910;8.406;2023-03-23T03:06:32;11.30;99.90
33815;DHT22;20121;51.910;8.406;2023-03-23T03:08:52;11.30;99.90
33815;DHT22;20121;51.910;8.406;2023-03-23T03:11:21;11.30;99.90
33815;DHT22;20121;51.910;8.406;2023-03-23T03:16:35;11.20;99.90
33815;DHT22;20121;51.910;8.406;2023-03-23T03:19:23;11.30;99.90
33815;DHT22;20121;51.910;8.406;2023-03-23T03:21:52;11.30;99.90
33815;DHT22;20121;51.910;8.406;2023-03-23T03:24:21;11.30;99.90
33815;DHT22;20121;51.910;8.406;2023-03-23T03:26:49;11.00;99.90
33815;DHT22;20121;51.910;8.406;2023-03-23T03:29:20;11.20;99.90
33815;DHT22;20121;51.910;8.406;2023-03-23T03:31:49;11.10;99.90
33815;DHT22;20121;51.910;8.406;2023-03-23T03:34:16;11.20;99.90
33815;DHT22;20121;51.910;8.406;2023-03-23T03:36:44;11.20;99.90
33815;DHT22;20121;51.910;8.406;2023-03-23T03:39:12;11.20;99.90
33815;DHT22;20121;51.910;8.406;2023-03-23T03:41:40;11.40;99.90
33815;DHT22;20121;51.910;8.406;2023-03-23T03:44:06;11.20;99.90
33815;DHT22;20121;51.910;8.406;2023-03-23T03:46:33;11.20;99.90
33815;DHT22;20121;51.910;8.406;2023-03-23T03:49:00;11.10;99.90
33815;DHT22;20121;51.910;8.406;2023-03-23T03:51:27;11.20;99.90
33815;DHT22;20121;51.910;8.406;2023-03-23T03:53:54;11.20;99.90
33815;DHT22;20121;51.910;8.406;2023-03-23T03:56:19;11.20;99.90
33815;DHT22;20121;51.910;8.406;2023-03-23T03:58:47;11.20;99.90
33815;DHT22;20121;51.910;8.406;2023-03-23T04:01:14;11.10;99.90
33815;DHT22;20121;51.910;8.406;2023-03-23T04:03:41;11.20;99.90
33815;DHT22;20121;51.910;8.406;2023-03-23T04:06:08;11.20;99.90
33815;DHT22;20121;51.910;8.406;2023-03-23T04:08:35;11.20;99.90
33815;DHT22;20121;51.910;8.406;2023-03-23T04:11:03;11.20;99.90
33815;DHT22;20121;51.910;8.406;2023-03-23T04:13:29;11.20;99.90
33815;DHT22;20121;51.910;8.406;2023-03-23T04:15:55;11.20;99.90
33815;DHT22;20121;51.910;8.406;2023-03-23T04:18:21;11.20;99.90
33815;DHT22;20121;51.910;8.406;2023-03-23T04:20:49;11.20;99.90
33815;DHT22;20121;51.910;8.406;2023-03-23T04:23:19;11.20;99.90
33815;DHT22;20121;51.910;8.406;2023-03-23T04:25:47;11.20;99.90
33815;DHT22;20121;51.910;8.406;2023-03-23T04:28:14;11.20;99.90
33815;DHT22;20121;51.910;8.406;2023-03-23T04:30:42;11.10;99.90
33815;DHT22;20121;51.910;8.406;2023-03-23T04:33:09;11.10;99.90
33815;DHT22;20121;51.910;8.406;2023-03-23T04:35:41;11.10;99.90
33815;DHT22;20121;51.910;8.406;2023-03-23T04:38:08;11.20;99.90
33815;DHT22;20121;51.910;8.406;2023-03-23T04:40:38;11.20;99.90
33815;DHT22;20121;51.910;8.406;2023-03-23T04:43:04;11.10;99.90
33815;DHT22;20121;51.910;8.406;2023-03-23T04:45:32;11.10;99.90
33815;DHT22;20121;51.910;8.406;2023-03-23T04:47:58;11.10;99.90
33815;DHT22;20121;51.910;8.406;2023-03-23T04:50:29;11.20;99.90
33815;DHT22;20121;51.910;8.406;2023-03-23T04:52:57;11.10;99.90
33815;DHT22;20121;51.910;8.406;2023-03-23T04:55:25;11.20;99.90
33815;DHT22;20121;51.910;8.406;2023-03-23T04:57:51;11.20;99.90
33815;DHT22;20121;51.910;8.406;2023-03-23T05:00:17;11.20;99.90
33815;DHT22;20121;51.910;8.406;2023-03-23T05:02:45;11.60;99.90
33815;DHT22;20121;51.910;8.406;2023-03-23T05:05:13;11.20;99.90
33815;DHT22;20121;51.910;8.406;2023-03-23T05:07:39;11.20;99.90
33815;DHT22;20121;51.910;8.406;2023-03-23T05:10:07;11.20;99.90
33815;DHT22;20121;51.910;8.406;2023-03-23T05:12:33;11.20;99.90
33815;DHT22;20121;51.910;8.406;2023-03-23T05:14:59;11.20;99.90
33815;DHT22;20121;51.910;8.406;2023-03-23T05:17:25;11.20;99.90
33815;DHT22;20121;51.910;8.406;2023-03-23T05:19:51;11.30;99.90
33815;DHT22;20121;51.910;8.406;2023-03-23T05:22:17;11.30;99.90
33815;DHT22;20121;51.910;8.406;2023-03-23T05:24:43;11.30;99.90
33815;DHT22;20121;51.910;8.406;2023-03-23T05:27:09;11.30;99.90
33815;DHT22;20121;51.910;8.406;2023-03-23T05:29:35;11.30;99.90
33815;DHT22;20121;51.910;8.406;2023-03-23T05:32:05;11.30;99.90
33815;DHT22;20121;51.910;8.406;2023-03-23T05:34:31;11.30;99.90
33815;DHT22;20121;51.910;8.406;2023-03-23T05:37:01;11.30;99.90
33815;DHT22;20121;51.910;8.406;2023-03-23T05:39:28;11.30;99.90
33815;DHT22;20121;51.910;8.406;2023-03-23T05:41:54;11.30;99.90
33815;DHT22;20121;51.910;8.406;2023-03-23T05:44:20;11.30;99.90
33815;DHT22;20121;51.910;8.406;2023-03-23T05:46:46;11.30;99.90
33815;DHT22;20121;51.910;8.406;2023-03-23T05:49:13;11.30;99.90
33815;DHT22;20121;51.910;8.406;2023-03-23T05:51:39;11.00;99.90
33815;DHT22;20121;51.910;8.406;2023-03-23T05:54:05;11.30;99.90
33815;DHT22;20121;51.910;8.406;2023-03-23T05:56:31;11.40;99.90
33815;DHT22;20121;51.910;8.406;2023-03-23T05:58:57;11.40;99.90
33815;DHT22;20121;51.910;8.406;2023-03-23T06:01:24;11.40;99.90
33815;DHT22;20121;51.910;8.406;2023-03-23T06:03:50;11.40;99.90
33815;DHT22;20121;51.910;8.406;2023-03-23T06:06:20;11.40;99.90
33815;DHT22;20121;51.910;8.406;2023-03-23T06:08:46;11.40;99.90
33815;DHT22;20121;51.910;8.406;2023-03-23T06:11:13;11.40;99.90
33815;DHT22;20121;51.910;8.406;2023-03-23T06:13:39;11.40;99.90
33815;DHT22;20121;51.910;8.406;2023-03-23T06:16:05;11.40;99.90
33815;DHT22;20121;51.910;8.406;2023-03-23T06:18:31;11.50;99.90
33815;DHT22;20121;51.910;8.406;2023-03-23T06:20:59;11.50;99.90
33815;DHT22;20121;51.910;8.406;2023-03-23T06:23:26;11.60;99.90
33815;DHT22;20121;51.910;8.406;2023-03-23T06:25:59;11.50;99.90
33815;DHT22;20121;51.910;8.406;2023-03-23T06:28:25;11.60;99.90
33815;DHT22;20121;51.910;8.406;2023-03-23T06:30:52;11.60;99.90
33815;DHT22;20121;51.910;8.406;2023-03-23T06:33:18;11.60;99.90
33815;DHT22;20121;51.910;8.406;2023-03-23T06:35:44;11.60;99.90
33815;DHT22;20121;51.910;8.406;2023-03-23T06:38:10;11.70;99.90
33815;DHT22;20121;51.910;8.406;2023-03-23T06:40:36;11.70;99.90
33815;DHT22;20121;51.910;8.406;2023-03-23T06:43:03;11.70;99.90
33815;DHT22;20121;51.910;8.406;2023-03-23T06:45:30;11.70;99.90
33815;DHT22;20121;51.910;8.406;2023-03-23T06:47:56;11.80;99.90
33815;DHT22;20121;51.910;8.406;2023-03-23T06:50:22;11.80;99.90
33815;DHT22;20121;51.910;8.406;2023-03-23T06:52:49;11.80;99.90
33815;DHT22;20121;51.910;8.406;2023-03-23T06:55:15;11.90;99.90
33815;DHT22;20121;51.910;8.406;2023-03-23T06:57:43;11.90;99.90
33815;DHT22;20121;51.910;8.406;2023-03-23T07:00:10;11.90;99.90
33815;DHT22;20121;51.910;8.406;2023-03-23T07:02:43;12.00;99.90
33815;DHT22;20121;51.910;8.406;2023-03-23T07:05:10;12.00;99.90
33815;DHT22;20121;51.910;8.406;2023-03-23T07:07:37;12.00;99.90
33815;DHT22;20121;51.910;8.406;2023-03-23T07:10:04;12.00;99.90
33815;DHT22;20121;51.910;8.406;2023-03-23T07:12:30;12.10;99.90
33815;DHT22;20121;51.910;8.406;2023-03-23T07:14:56;12.10;99.90
33815;DHT22;20121;51.910;8.406;2023-03-23T07:17:21;12.10;99.90
33815;DHT22;20121;51.910;8.406;2023-03-23T07:19:47;12.10;99.90
33815;DHT22;20121;51.910;8.406;2023-03-23T07:22:13;12.10;99.90
33815;DHT22;20121;51.910;8.406;2023-03-23T07:24:38;12.20;99.90
33815;DHT22;20121;51.910;8.406;2023-03-23T07:27:04;12.10;99.90
33815;DHT22;20121;51.910;8.406;2023-03-23T07:29:30;12.20;99.90
33815;DHT22;20121;51.910;8.406;2023-03-23T07:31:56;12.10;99.90
33815;DHT22;20121;51.910;8.406;2023-03-23T07:34:22;12.40;99.90
33815;DHT22;20121;51.910;8.406;2023-03-23T07:36:48;12.40;99.90
33815;DHT22;20121;51.910;8.406;2023-03-23T07:39:14;12.40;99.90
33815;DHT22;20121;51.910;8.406;2023-03-23T07:41:40;12.40;99.90
33815;DHT22;20121;51.910;8.406;2023-03-23T07:44:06;12.40;99.90
33815;DHT22;20121;51.910;8.406;2023-03-23T07:46:32;12.40;99.90
33815;DHT22;20121;51.910;8.406;2023-03-23T07:48:58;12.40;99.90
33815;DHT22;20121;51.910;8.406;2023-03-23T07:51:25;12.40;99.90
33815;DHT22;20121;51.910;8.406;2023-03-23T07:53:51;12.40;99.90
33815;DHT22;20121;51.910;8.406;2023-03-23T07:56:17;12.40;99.90
33815;DHT22;20121;51.910;8.406;2023-03-23T07:58:47;12.50;99.90
33815;DHT22;20121;51.910;8.406;2023-03-23T08:01:13;12.50;99.90
33815;DHT22;20121;51.910;8.406;2023-03-23T08:03:39;12.50;99.90
33815;DHT22;20121;51.910;8.406;2023-03-23T08:06:05;12.50;99.90
33815;DHT22;20121;51.910;8.406;2023-03-23T08:08:31;12.60;99.90
33815;DHT22;20121;51.910;8.406;2023-03-23T08:10:57;12.70;99.90
33815;DHT22;20121;51.910;8.406;2023-03-23T08:13:23;12.70;99.90
33815;DHT22;20121;51.910;8.406;2023-03-23T08:15:50;12.70;99.90
33815;DHT22;20121;51.910;8.406;2023-03-23T08:18:16;12.80;99.90
33815;DHT22;20121;51.910;8.406;2023-03-23T08:20:42;12.80;99.90
33815;DHT22;20121;51.910;8.406;2023-03-23T08:23:10;12.90;99.90
33815;DHT22;20121;51.910;8.406;2023-03-23T08:25:36;12.90;99.90
33815;DHT22;20121;51.910;8.406;2023-03-23T08:28:02;12.90;99.90
33815;DHT22;20121;51.910;8.406;2023-03-23T08:30:29;13.00;99.90
33815;DHT22;20121;51.910;8.406;2023-03-23T08:32:57;13.00;99.90
33815;DHT22;20121;51.910;8.406;2023-03-23T08:35:23;13.00;99.90
33815;DHT22;20121;51.910;8.406;2023-03-23T08:37:49;13.10;99.90
33815;DHT22;20121;51.910;8.406;2023-03-23T08:40:21;13.10;99.90
33815;DHT22;20121;51.910;8.406;2023-03-23T08:42:48;13.10;99.90
33815;DHT22;20121;51.910;8.406;2023-03-23T08:45:17;13.20;99.90
33815;DHT22;20121;51.910;8.406;2023-03-23T08:47:43;13.20;99.90
33815;DHT22;20121;51.910;8.406;2023-03-23T08:50:12;13.20;99.90
33815;DHT22;20121;51.910;8.406;2023-03-23T08:52:38;13.20;99.90
33815;DHT22;20121;51.910;8.406;2023-03-23T08:55:05;13.20;99.90
33815;DHT22;20121;51.910;8.406;2023-03-23T08:57:31;13.20;99.90
33815;DHT22;20121;51.910;8.406;2023-03-23T08:59:57;13.20;99.90
33815;DHT22;20121;51.910;8.406;2023-03-23T09:02:26;13.20;99.90
33815;DHT22;20121;51.910;8.406;2023-03-23T09:04:53;13.20;99.90
33815;DHT22;20121;51.910;8.406;2023-03-23T09:07:19;13.20;99.90
33815;DHT22;20121;51.910;8.406;2023-03-23T09:09:44;13.20;99.90
33815;DHT22;20121;51.910;8.406;2023-03-23T09:12:10;13.20;99.90
33815;DHT22;20121;51.910;8.406;2023-03-23T09:14:37;12.90;99.90
33815;DHT22;20121;51.910;8.406;2023-03-23T09:17:04;13.30;99.90
33815;DHT22;20121;51.910;8.406;2023-03-23T09:19:31;13.40;99.90
33815;DHT22;20121;51.910;8.406;2023-03-23T09:21:58;13.80;99.90
33815;DHT22;20121;51.910;8.406;2023-03-23T09:24:24;13.50;99.90
33815;DHT22;20121;51.910;8.406;2023-03-23T09:26:50;13.50;99.90
33815;DHT22;20121;51.910;8.406;2023-03-23T09:29:16;13.60;99.90
33815;DHT22;20121;51.910;8.406;2023-03-23T09:31:42;13.90;99.90
33815;DHT22;20121;51.910;8.406;2023-03-23T09:34:08;13.60;99.90
33815;DHT22;20121;51.910;8.406;2023-03-23T09:36:37;13.60;99.90
33815;DHT22;20121;51.910;8.406;2023-03-23T09:39:07;13.60;99.90
33815;DHT22;20121;51.910;8.406;2023-03-23T09:41:51;13.70;99.90
33815;DHT22;20121;51.910;8.406;2023-03-23T09:44:42;13.80;99.90
33815;DHT22;20121;51.910;8.406;2023-03-23T09:47:28;13.80;99.90
33815;DHT22;20121;51.910;8.406;2023-03-23T09:52:52;13.80;99.90
33815;DHT22;20121;51.910;8.406;2023-03-23T09:55:20;13.80;99.90
33815;DHT22;20121;51.910;8.406;2023-03-23T09:58:20;13.80;99.90
33815;DHT22;20121;51.910;8.406;2023-03-23T10:01:26;13.80;99.90
33815;DHT22;20121;51.910;8.406;2023-03-23T10:04:01;13.90;99.90
33815;DHT22;20121;51.910;8.406;2023-03-23T10:06:28;13.90;99.90
33815;DHT22;20121;51.910;8.406;2023-03-23T10:08:57;13.90;99.90
33815;DHT22;20121;51.910;8.406;2023-03-23T10:11:54;13.90;99.90
33815;DHT22;20121;51.910;8.406;2023-03-23T10:17:25;14.20;99.90
33815;DHT22;20121;51.910;8.406;2023-03-23T10:22:53;15.00;99.90
33815;DHT22;20121;51.910;8.406;2023-03-23T10:25:24;15.10;99.90
33815;DHT22;20121;51.910;8.406;2023-03-23T10:28:11;15.20;99.90
33815;DHT22;20121;51.910;8.406;2023-03-23T10:30:40;15.30;99.90
33815;DHT22;20121;51.910;8.406;2023-03-23T10:36:13;15.10;99.90
33815;DHT22;20121;51.910;8.406;2023-03-23T10:41:19;14.90;99.90
33815;DHT22;20121;51.910;8.406;2023-03-23T10:43:45;14.80;99.90
33815;DHT22;20121;51.910;8.406;2023-03-23T10:49:06;14.70;99.90
33815;DHT22;20121;51.910;8.406;2023-03-23T10:51:40;14.60;99.90
33815;DHT22;20121;51.910;8.406;2023-03-23T10:54:07;14.50;99.90
33815;DHT22;20121;51.910;8.406;2023-03-23T10:56:39;14.40;99.90
33815;DHT22;20121;51.910;8.406;2023-03-23T10:59:45;14.40;99.90
33815;DHT22;20121;51.910;8.406;2023-03-23T11:02:19;13.90;99.90
33815;DHT22;20121;51.910;8.406;2023-03-23T11:04:53;14.20;99.90
33815;DHT22;20121;51.910;8.406;2023-03-23T11:07:26;14.10;99.90
33815;DHT22;20121;51.910;8.406;2023-03-23T11:09:55;13.90;99.90
33815;DHT22;20121;51.910;8.406;2023-03-23T11:12:21;13.30;99.90
33815;DHT22;20121;51.910;8.406;2023-03-23T11:14:49;13.20;99.90
33815;DHT22;20121;51.910;8.406;2023-03-23T11:17:26;12.80;99.90
33815;DHT22;20121;51.910;8.406;2023-03-23T11:19:52;12.60;99.90
33815;DHT22;20121;51.910;8.406;2023-03-23T11:22:32;12.20;99.90
33815;DHT22;20121;51.910;8.406;2023-03-23T11:25:03;12.10;99.90
33815;DHT22;20121;51.910;8.406;2023-03-23T11:27:30;12.00;99.90
33815;DHT22;20121;51.910;8.406;2023-03-23T11:30:08;11.90;99.90
33815;DHT22;20121;51.910;8.406;2023-03-23T11:32:35;11.70;99.90
33815;DHT22;20121;51.910;8.406;2023-03-23T11:35:04;11.70;99.90
33815;DHT22;20121;51.910;8.406;2023-03-23T11:37:42;11.60;99.90
33815;DHT22;20121;51.910;8.406;2023-03-23T11:42:45;11.60;99.90
33815;DHT22;20121;51.910;8.406;2023-03-23T11:46:10;11.40;99.90
33815;DHT22;20121;51.910;8.406;2023-03-23T11:48:47;11.30;99.90
33815;DHT22;20121;51.910;8.406;2023-03-23T11:51:19;11.20;99.90
33815;DHT22;20121;51.910;8.406;2023-03-23T11:53:52;11.20;99.90
33815;DHT22;20121;51.910;8.406;2023-03-23T11:58:50;11.20;99.90
33815;DHT22;20121;51.910;8.406;2023-03-23T12:12:40;11.00;99.90
33815;DHT22;20121;51.910;8.406;2023-03-23T12:15:17;11.00;99.90
33815;DHT22;20121;51.910;8.406;2023-03-23T12:18:00;11.00;99.90
33815;DHT22;20121;51.910;8.406;2023-03-23T12:20:32;11.00;99.90
33815;DHT22;20121;51.910;8.406;2023-03-23T12:26:08;11.00;99.90
33815;DHT22;20121;51.910;8.406;2023-03-23T12:31:46;11.10;99.90
33815;DHT22;20121;51.910;8.406;2023-03-23T12:37:24;11.20;99.90
33815;DHT22;20121;51.910;8.406;2023-03-23T12:45:39;11.20;99.90
33815;DHT22;20121;51.910;8.406;2023-03-23T12:48:17;11.20;99.90
33815;DHT22;20121;51.910;8.406;2023-03-23T12:51:00;11.20;99.90
33815;DHT22;20121;51.910;8.406;2023-03-23T12:53:40;11.30;99.90
33815;DHT22;20121;51.910;8.406;2023-03-23T12:56:13;11.30;99.90
33815;DHT22;20121;51.910;8.406;2023-03-23T12:58:45;11.30;99.90
33815;DHT22;20121;51.910;8.406;2023-03-23T13:03:59;11.30;99.90
33815;DHT22;20121;51.910;8.406;2023-03-23T13:06:36;11.20;99.90
33815;DHT22;20121;51.910;8.406;2023-03-23T13:09:07;11.20;99.90
33815;DHT22;20121;51.910;8.406;2023-03-23T13:11:37;11.10;99.90
33815;DHT22;20121;51.910;8.406;2023-03-23T13:17:11;11.10;99.90
33815;DHT22;20121;51.910;8.406;2023-03-23T13:20:04;11.10;99.90
33815;DHT22;20121;51.910;8.406;2023-03-23T13:25:51;11.00;99.90
33815;DHT22;20121;51.910;8.406;2023-03-23T13:28:23;11.00;99.90
33815;DHT22;20121;51.910;8.406;2023-03-23T13:31:11;11.00;99.90
33815;DHT22;20121;51.910;8.406;2023-03-23T13:33:37;11.00;99.90
33815;DHT22;20121;51.910;8.406;2023-03-23T13:36:12;11.10;99.90
33815;DHT22;20121;51.910;8.406;2023-03-23T13:38:44;11.20;99.90
33815;DHT22;20121;51.910;8.406;2023-03-23T13:41:13;11.10;99.90
33815;DHT22;20121;51.910;8.406;2023-03-23T13:43:40;11.10;99.90
33815;DHT22;20121;51.910;8.406;2023-03-23T13:46:28;11.20;99.90
33815;DHT22;20121;51.910;8.406;2023-03-23T13:49:16;11.10;99.90
33815;DHT22;20121;51.910;8.406;2023-03-23T13:56:54;11.20;99.90
33815;DHT22;20121;51.910;8.406;2023-03-23T14:01:55;11.30;99.90
33815;DHT22;20121;51.910;8.406;2023-03-23T14:04:23;11.60;99.90
33815;DHT22;20121;51.910;8.406;2023-03-23T14:06:57;11.50;99.90
33815;DHT22;20121;51.910;8.406;2023-03-23T14:09:28;11.70;99.90
33815;DHT22;20121;51.910;8.406;2023-03-23T14:11:57;11.50;99.90
33815;DHT22;20121;51.910;8.406;2023-03-23T14:14:31;11.80;99.90
33815;DHT22;20121;51.910;8.406;2023-03-23T14:17:11;11.90;99.90
33815;DHT22;20121;51.910;8.406;2023-03-23T14:19:39;11.90;99.90
33815;DHT22;20121;51.910;8.406;2023-03-23T14:22:25;12.00;99.90
33815;DHT22;20121;51.910;8.406;2023-03-23T14:24:58;12.00;99.90
33815;DHT22;20121;51.910;8.406;2023-03-23T14:27:24;12.00;99.90
33815;DHT22;20121;51.910;8.406;2023-03-23T14:30:01;12.00;99.90
33815;DHT22;20121;51.910;8.406;2023-03-23T14:32:29;12.00;99.90
33815;DHT22;20121;51.910;8.406;2023-03-23T14:34:57;12.00;99.90
33815;DHT22;20121;51.910;8.406;2023-03-23T14:37:23;12.00;99.90
33815;DHT22;20121;51.910;8.406;2023-03-23T14:39:52;12.00;99.90
33815;DHT22;20121;51.910;8.406;2023-03-23T14:42:23;12.00;99.90
33815;DHT22;20121;51.910;8.406;2023-03-23T14:44:51;12.00;99.90
33815;DHT22;20121;51.910;8.406;2023-03-23T14:47:38;12.00;99.90
33815;DHT22;20121;51.910;8.406;2023-03-23T14:50:21;12.10;99.90
33815;DHT22;20121;51.910;8.406;2023-03-23T14:52:48;12.20;99.90
33815;DHT22;20121;51.910;8.406;2023-03-23T14:55:19;12.20;99.90
33815;DHT22;20121;51.910;8.406;2023-03-23T14:57:47;12.20;99.90
33815;DHT22;20121;51.910;8.406;2023-03-23T15:00:14;12.40;99.90
33815;DHT22;20121;51.910;8.406;2023-03-23T15:02:44;12.50;99.90
33815;DHT22;20121;51.910;8.406;2023-03-23T15:05:14;12.50;99.90
33815;DHT22;20121;51.910;8.406;2023-03-23T15:07:43;12.50;99.90
33815;DHT22;20121;51.910;8.406;2023-03-23T15:10:17;12.60;99.90
33815;DHT22;20121;51.910;8.406;2023-03-23T15:12:45;12.70;99.90
33815;DHT22;20121;51.910;8.406;2023-03-23T15:15:38;12.70;99.90
33815;DHT22;20121;51.910;8.406;2023-03-23T15:20:32;12.70;99.90
33815;DHT22;20121;51.910;8.406;2023-03-23T15:23:21;12.80;99.90
33815;DHT22;20121;51.910;8.406;2023-03-23T15:25:52;12.90;99.90
33815;DHT22;20121;51.910;8.406;2023-03-23T15:28:28;12.90;99.90
33815;DHT22;20121;51.910;8.406;2023-03-23T15:30:56;12.50;99.90
33815;DHT22;20121;51.910;8.406;2023-03-23T15:33:23;12.70;99.90
33815;DHT22;20121;51.910;8.406;2023-03-23T15:35:54;12.90;99.90
33815;DHT22;20121;51.910;8.406;2023-03-23T15:38:31;12.90;99.90
33815;DHT22;20121;51.910;8.406;2023-03-23T15:40:59;12.90;99.90
33815;DHT22;20121;51.910;8.406;2023-03-23T15:43:32;12.90;99.90
33815;DHT22;20121;51.910;8.406;2023-03-23T15:46:04;12.90;99.90
33815;DHT22;20121;51.910;8.406;2023-03-23T15:51:11;12.90;99.90
33815;DHT22;20121;51.910;8.406;2023-03-23T15:53:39;12.90;99.90
33815;DHT22;20121;51.910;8.406;2023-03-23T15:56:07;12.90;99.90
33815;DHT22;20121;51.910;8.406;2023-03-23T15:58:34;12.90;99.90
33815;DHT22;20121;51.910;8.406;2023-03-23T16:01:03;12.90;99.90
33815;DHT22;20121;51.910;8.406;2023-03-23T16:04:02;12.90;99.90
33815;DHT22;20121;51.910;8.406;2023-03-23T16:06:31;12.90;99.90
33815;DHT22;20121;51.910;8.406;2023-03-23T16:08:58;12.90;99.90
33815;DHT22;20121;51.910;8.406;2023-03-23T16:11:26;12.80;99.90
33815;DHT22;20121;51.910;8.406;2023-03-23T16:13:52;12.80;99.90
33815;DHT22;20121;51.910;8.406;2023-03-23T16:16:30;12.80;99.90
33815;DHT22;20121;51.910;8.406;2023-03-23T16:18:56;12.70;99.90
33815;DHT22;20121;51.910;8.406;2023-03-23T16:21:22;12.60;99.90
33815;DHT22;20121;51.910;8.406;2023-03-23T16:23:47;12.60;99.90
33815;DHT22;20121;51.910;8.406;2023-03-23T16:26:14;12.60;99.90
33815;DHT22;20121;51.910;8.406;2023-03-23T16:28:40;12.60;99.90
33815;DHT22;20121;51.910;8.406;2023-03-23T16:31:06;12.60;99.90
33815;DHT22;20121;51.910;8.406;2023-03-23T16:33:32;12.60;99.90
33815;DHT22;20121;51.910;8.406;2023-03-23T16:35:58;12.60;99.90
33815;DHT22;20121;51.910;8.406;2023-03-23T16:38:24;12.60;99.90
33815;DHT22;20121;51.910;8.406;2023-03-23T16:40:50;12.60;99.90
33815;DHT22;20121;51.910;8.406;2023-03-23T16:43:16;12.60;99.90
33815;DHT22;20121;51.910;8.406;2023-03-23T16:45:43;12.60;99.90
33815;DHT22;20121;51.910;8.406;2023-03-23T16:48:09;12.60;99.90
33815;DHT22;20121;51.910;8.406;2023-03-23T16:50:36;12.60;99.90
33815;DHT22;20121;51.910;8.406;2023-03-23T16:53:03;12.50;99.90
33815;DHT22;20121;51.910;8.406;2023-03-23T16:55:29;12.50;99.90
33815;DHT22;20121;51.910;8.406;2023-03-23T16:57:56;12.50;99.90
33815;DHT22;20121;51.910;8.406;2023-03-23T17:00:23;12.50;99.90
33815;DHT22;20121;51.910;8.406;2023-03-23T17:02:52;12.40;99.90
33815;DHT22;20121;51.910;8.406;2023-03-23T17:05:19;12.20;99.90
33815;DHT22;20121;51.910;8.406;2023-03-23T17:07:46;12.40;99.90
33815;DHT22;20121;51.910;8.406;2023-03-23T17:10:12;12.30;99.90
33815;DHT22;20121;51.910;8.406;2023-03-23T17:12:38;12.30;99.90
33815;DHT22;20121;51.910;8.406;2023-03-23T17:15:05;12.20;99.90